Terminal Aerodrome Forecast
Issued by NWS

Home | Current Version | Previous Version | Text Only | Print | Product List | Glossary On
Versions: 1 2 3 4 5 6 7 8 9 10 11 12 13 14 15 16 17 18 19 20
000
FTUS42 KJAX 012300
TAFCRG
TAF
KCRG 012325Z 0200/0224 04003KT P6SM SCT025 BKN060
     FM020800 02002KT 5SM BR BKN030 BKN060
     FM021300 05006KT P6SM SCT030 BKN060
     FM021800 07008KT P6SM SCT035 BKN070=

USA.gov is the U.S. government's official web portal to all federal, state and local government web resources and services.